Monday, June 25, 2018, 12:22 AM EDT
Back to Local

KORH, Worcester Regional Airport

Location: Worcester, MA, United States Lat: 42.267
Local Time: 12:22 AM EDT ( 4:22 GMT) Lon: -71.867
Time Zone: US/Eastern Elev: 1010 ft

Show me the last for .
Show Decoded

2018-06-25 00:01 METAR KORH 250401Z 23004KT 1/2SM R11/3500VP6000FT BR VV002 18/18 A2980 RMK AO2
                 T01830183 =
2018-06-24 23:54 METAR KORH 250354Z 23003KT 1SM R11/3500VP6000FT BR VV002 18/18 A2980 RMK AO2
                 RAB38E50 SLP089 P0000 T01830183 =
2018-06-24 23:07 METAR KORH 250307Z 30005KT 10SM BKN003 OVC015 19/18 A2980 RMK AO2 T01890183 =
2018-06-24 22:54 METAR KORH 250254Z 28005KT 10SM FEW005 OVC016 19/18 A2980 RMK AO2 SLP088 60000
                 T01890183 58007 =
2018-06-24 22:38 METAR KORH 250238Z 25005KT 10SM SCT005 OVC016 19/18 A2980 RMK AO2 T01890183 =
2018-06-24 22:22 METAR KORH 250222Z 27003KT 10SM BKN006 19/18 A2980 RMK AO2 T01890183 =
2018-06-24 22:03 METAR KORH 250203Z 20004KT 10SM FEW004 SCT017 19/18 A2981 RMK AO2 T01890183 =
2018-06-24 21:54 METAR KORH 250154Z 22004KT 5SM BR SCT004 BKN010 BKN017 19/18 A2982 RMK AO2
                 SLP094 T01890183 =
2018-06-24 21:47 METAR KORH 250147Z 21006KT 5SM BR SCT004 SCT010 OVC017 19/18 A2982 RMK AO2
                 T01940183 =
2018-06-24 21:40 METAR KORH 250140Z 22005KT 5SM BR BKN004 BKN008 OVC017 19/18 A2982 RMK AO2 CIG
                 003V008 T01940183 =
2018-06-24 21:31 METAR KORH 250131Z 21004KT 5SM BR OVC006 19/19 A2982 RMK AO2 CIG 003V009
                 T01940189 =
2018-06-24 20:54 METAR KORH 250054Z 13004KT 2SM BR BKN005 OVC030 19/19 A2981 RMK AO2 RAE01 SLP092
                 P0000 T01940194 =
2018-06-24 19:54 METAR KORH 242354Z 00000KT 2SM -RA BR BKN005 BKN030 OVC065 20/19 A2982 RMK AO2
                 SLP096 P0007 60047 T02000194 10244 20194 50004 =
2018-06-24 19:52 METAR KORH 242352Z 00000KT 2SM -RA BR BKN005 BKN030 OVC065 20/19 A2982 RMK AO2
                 P0007 =
2018-06-24 19:27 METAR KORH 242327Z 18004KT 1 1/2SM -RA BR FEW005 BKN030 OVC065 19/19 A2982 RMK
                 AO2 LTG DSNT S P0007 T01940194 =
2018-06-24 18:56 METAR KORH 242256Z 21005KT 2SM RA BR FEW005 BKN030 OVC100 20/19 A2982 =
2018-06-24 18:54 METAR KORH 242254Z 20005KT 2SM VCTS RA BR SCT005 BKN030 OVC100 20/19 A2982 RMK
                 AO2 TSB15E30 SLP097 TS OHD P0039 T02000194 =
2018-06-24 18:41 METAR KORH 242241Z 24005KT 1 1/2SM R11/6000VP6000FT VCTS +RA BR FEW005 BKN024
                 OVC055 20/19 A2982 RMK AO2 TSB15E30 TS MOV W TO E P0033 T02000194 =
2018-06-24 18:34 METAR KORH 242234Z 24007KT 1 1/2SM R11/6000VP6000FT VCTS +RA BR SCT005 BKN030
                 OVC060 20/19 A2983 RMK AO2 TSB15E30 TS MOV W TO E P0018 T02000194 =
2018-06-24 18:32 METAR KORH 242232Z 27005KT 2SM R11/6000VP6000FT VCTS +RA BR SCT005 BKN024 OVC060
                 20/19 A2984 RMK AO2 TSB15E30 TS MOV W TO E P0016 T02000194 =
2018-06-24 18:23 METAR KORH 242223Z 25007KT 1 1/2SM R11/6000VP6000FT +TSRA BR FEW005 SCT042
                 OVC060 20/19 A2983 RMK AO2 LTG DSNT SW AND W TSB15 TS MOV W TO E P0009 T02000194
                 =
2018-06-24 18:15 METAR KORH 242215Z 22008KT 2 1/2SM +TSRA BR OVC060 21/19 A2982 =
2018-06-24 17:54 METAR KORH 242154Z 20008KT 5SM -RA BR SCT047 BKN070 OVC080 21/19 A2981 RMK AO2
                 LTG DSNT SW AND W RAB29 SLP092 P0001 T02110194 =
2018-06-24 16:54 METAR KORH 242054Z COR 20007KT 5SM BKN020 BKN060 OVC085 23/18 A2981 RMK AO2
                 SLP092 T02330183 55003 =
2018-06-24 15:54 METAR KORH 241954Z 21010KT 10SM SCT024 OVC048 23/18 A2981 RMK AO2 SLP091
                 T02330183 =
2018-06-24 15:01 METAR KORH 241901Z VRB05KT 10SM FEW026 OVC048 24/18 A2981 RMK AO2 T02440178 =
2018-06-24 14:54 METAR KORH 241854Z 25008KT 10SM BKN026 BKN035 OVC046 24/18 A2982 RMK AO2 SLP095
                 T02390178 =
2018-06-24 13:54 METAR KORH 241754Z 21007KT 10SM BKN019 23/18 A2982 RMK AO2 SLP095 T02280178
                 10233 20150 58012 =
2018-06-24 12:54 METAR KORH 241654Z 26006KT 10SM BKN019 23/17 A2983 RMK AO2 SLP099 T02280172 =
2018-06-24 12:30 METAR KORH 241630Z 24006KT 10SM BKN015 22/17 A2984 RMK AO2 T02170172 =
2018-06-24 11:54 METAR KORH 241554Z 23005KT 10SM BKN010 OVC016 20/17 A2985 RMK AO2 CIG 008V012
                 SLP108 T02000172 =
2018-06-24 11:43 METAR KORH 241543Z 23004KT 10SM BKN010 OVC014 19/17 A2985 RMK AO2 CIG 007V011
                 T01940167 =
2018-06-24 10:54 METAR KORH 241454Z 23007KT 10SM OVC005 18/17 A2985 RMK AO2 SLP108 T01830167
                 53006 =
2018-06-24 09:54 METAR KORH 241354Z 24010KT 10SM OVC004 17/16 A2985 RMK AO2 SLP106 T01670161 =
2018-06-24 08:54 METAR KORH 241254Z 24009KT 3SM BR OVC003 16/16 A2983 RMK AO2 SLP103 T01560156 =
2018-06-24 08:49 METAR KORH 241249Z 25009KT 2 1/2SM R11/5500VP6000FT BR OVC003 16/15 A2983 RMK
                 AO2 =
2018-06-24 07:54 METAR KORH 241154Z 24012KT 3SM BR OVC002 15/14 A2982 RMK AO2 SLP098 70003
                 T01500144 10150 20122 51004 =
2018-06-24 07:43 METAR KORH 241143Z 25011KT 3SM R11/5000VP6000FT BR OVC002 15/14 A2982 RMK AO2
                 T01500144 =
2018-06-24 07:14 METAR KORH 241114Z 24009KT 1 1/4SM R11/3000V5000FT BR OVC002 14/14 A2982 RMK AO2
                 T01440144 =
2018-06-24 06:54 METAR KORH 241054Z 24010KT 3/4SM R11/3500V4500FT BR OVC002 14/14 A2982 RMK AO2
                 SLP098 T01440139 =
2018-06-24 06:13 METAR KORH 241013Z 24007KT 1/2SM R11/3000V3500FT FG VV002 14/14 A2981 RMK AO2
                 T01390139 =
2018-06-24 05:54 METAR KORH 240954Z 23007KT 1/4SM R11/2800V3000FT FG VV002 13/13 A2982 RMK AO2
                 SLP099 T01330133 =
2018-06-24 05:27 METAR KORH 240927Z AUTO 25006KT 1/2SM R11/3500V4000FT FG VV002 13/13 A2981 RMK
                 AO2 T01330133 =
2018-06-24 05:18 METAR KORH 240918Z AUTO 25005KT 1SM R11/3500V5000FT BR VV002 13/13 A2981 RMK AO2
                 T01330133 =
2018-06-24 04:54 METAR KORH 240854Z AUTO 24007KT 3/4SM R11/4000V5000FT BR VV002 13/13 A2981 RMK
                 AO2 SLP096 T01330128 55008 =
2018-06-24 04:30 METAR KORH 240830Z AUTO 24005KT 3/4SM R11/4000V4500FT BR VV002 13/13 A2981 RMK
                 AO2 T01280128 =
2018-06-24 03:54 METAR KORH 240754Z AUTO 23004KT 1 3/4SM BR OVC003 13/13 A2981 RMK AO2 SLP094
                 T01280128 =
2018-06-24 03:29 METAR KORH 240729Z AUTO 24003KT 1SM R11/5000VP6000FT BR VV003 13/13 A2981 RMK
                 AO2 T01280128 =
2018-06-24 03:16 METAR KORH 240716Z AUTO 23003KT 3/4SM R11/5000V5500FT BR VV003 13/13 A2982 RMK
                 AO2 T01280128 =
2018-06-24 02:54 METAR KORH 240654Z AUTO 24003KT 1 1/4SM BR OVC003 13/13 A2982 RMK AO2 SLP100
                 T01280128 =
2018-06-24 01:54 METAR KORH 240554Z AUTO 00000KT 1 3/4SM BR OVC002 12/12 A2983 RMK AO2 SLP104
                 60001 T01220122 10133 20122 56006 =
2018-06-24 01:13 METAR KORH 240513Z AUTO 00000KT 1SM R11/5500VP6000FT BR VV002 12/12 A2984 RMK
                 AO2 T01220122 =
2018-06-24 00:54 METAR KORH 240454Z 36003KT 3/4SM R11/3000VP6000FT BR VV002 12/12 A2984 RMK AO2
                 SLP106 T01220122 401610122 =

Support USWX by starting your Amazon purchase here.